createdAt,value
2023-03-02T00:04:20.797Z,1.54
2023-03-02T00:09:22.394Z,1.58
2023-03-02T00:14:23.899Z,1.57
2023-03-02T00:19:26.457Z,1.62
2023-03-02T00:24:27.954Z,1.61
2023-03-02T00:29:29.370Z,1.57
2023-03-02T00:34:33.747Z,1.58
2023-03-02T00:39:35.202Z,1.52
2023-03-02T00:44:36.642Z,1.50
2023-03-02T00:49:38.396Z,1.50
2023-03-02T00:54:39.841Z,1.52
2023-03-02T00:59:41.386Z,1.55
2023-03-02T01:04:44.469Z,1.55
2023-03-02T01:09:45.980Z,1.60
2023-03-02T01:14:49.008Z,1.62
2023-03-02T01:19:50.752Z,1.65
2023-03-02T01:24:53.353Z,1.68
2023-03-02T01:29:55.081Z,1.68
2023-03-02T01:34:56.508Z,1.73
2023-03-02T01:39:57.906Z,1.76
2023-03-02T01:44:59.483Z,1.77
2023-03-02T01:50:21.181Z,1.74
2023-03-02T01:55:25.891Z,1.71
2023-03-02T02:00:31.866Z,1.71
2023-03-02T02:05:33.313Z,1.70
2023-03-02T02:10:35.850Z,1.71
2023-03-02T02:15:38.974Z,1.69
2023-03-02T02:20:45.217Z,1.68
2023-03-02T02:25:49.697Z,1.67
2023-03-02T02:31:04.459Z,1.67
2023-03-02T02:36:10.106Z,1.69
2023-03-02T02:41:19.279Z,1.69
2023-03-02T02:46:20.904Z,1.69
2023-03-02T02:51:27.112Z,1.66
2023-03-02T02:56:35.080Z,1.60
2023-03-02T03:01:36.801Z,1.50
2023-03-02T03:06:48.718Z,1.36
2023-03-02T03:12:17.779Z,1.28
2023-03-02T03:17:19.263Z,1.20
2023-03-02T03:22:20.726Z,1.15
2023-03-02T03:27:22.150Z,1.14
2023-03-02T03:32:23.678Z,1.11
2023-03-02T03:37:25.251Z,1.05
2023-03-02T03:42:27.198Z,0.97
2023-03-02T03:47:28.649Z,0.91
2023-03-02T03:52:33.257Z,0.85
2023-03-02T03:57:34.712Z,0.78
2023-03-02T04:02:37.742Z,0.72
2023-03-02T04:07:40.109Z,0.71
2023-03-02T04:12:42.535Z,0.68
2023-03-02T04:17:45.020Z,0.65
2023-03-02T04:22:48.812Z,0.61
2023-03-02T04:27:52.956Z,0.59
2023-03-02T04:32:54.798Z,0.51
2023-03-02T04:37:56.251Z,0.49
2023-03-02T04:42:57.670Z,0.45
2023-03-02T04:47:59.364Z,0.43
2023-03-02T04:53:00.816Z,0.38
2023-03-02T04:58:02.278Z,0.35
2023-03-02T05:03:04.169Z,0.34
2023-03-02T05:08:05.686Z,0.31
2023-03-02T05:13:07.333Z,0.29
2023-03-02T05:18:10.849Z,0.24
2023-03-02T05:23:25.158Z,0.20
2023-03-02T05:28:27.781Z,0.21
2023-03-02T05:33:30.091Z,0.24
2023-03-02T05:38:31.801Z,0.26
2023-03-02T05:43:33.323Z,0.25
2023-03-02T05:48:34.952Z,0.23
2023-03-02T05:53:36.486Z,0.23
2023-03-02T05:58:37.938Z,0.20
2023-03-02T06:03:39.349Z,0.21
2023-03-02T06:08:41.980Z,0.21
2023-03-02T06:13:43.526Z,0.25
2023-03-02T06:18:44.944Z,0.27
2023-03-02T06:23:46.365Z,0.33
2023-03-02T06:28:52.461Z,0.41
2023-03-02T06:33:54.550Z,0.53
2023-03-02T06:38:56.034Z,0.69
2023-03-02T06:43:57.441Z,1.02
2023-03-02T06:48:58.848Z,1.40
2023-03-02T06:54:00.863Z,1.95
2023-03-02T06:59:02.314Z,2.16
2023-03-02T07:04:03.919Z,2.28
2023-03-02T07:09:05.384Z,2.44
2023-03-02T07:14:06.993Z,2.58
2023-03-02T07:19:13.712Z,2.84
2023-03-02T07:24:15.140Z,3.42
2023-03-02T07:29:16.646Z,4.05
2023-03-02T07:34:18.568Z,4.42
2023-03-02T07:39:20.374Z,5.23
2023-03-02T07:44:21.795Z,5.76
2023-03-02T07:49:23.233Z,6.11
2023-03-02T07:54:26.495Z,5.61
2023-03-02T07:59:28.856Z,4.90
2023-03-02T08:04:30.285Z,4.79
2023-03-02T08:09:31.781Z,4.79
2023-03-02T08:14:33.204Z,4.81
2023-03-02T08:19:34.791Z,4.85
2023-03-02T08:24:37.204Z,5.17
2023-03-02T08:29:38.649Z,5.64
2023-03-02T08:34:40.073Z,5.75
2023-03-02T08:39:41.481Z,5.73
2023-03-02T08:44:42.896Z,5.88
2023-03-02T08:49:45.561Z,6.02
2023-03-02T08:54:47.841Z,6.35
2023-03-02T08:59:49.363Z,6.64
2023-03-02T09:04:50.861Z,6.66
2023-03-02T09:09:52.309Z,6.79
2023-03-02T09:14:53.708Z,6.99
2023-03-02T09:19:55.135Z,7.26
2023-03-02T09:24:56.547Z,7.19
2023-03-02T09:29:58.057Z,7.50
2023-03-02T09:34:59.490Z,7.79
2023-03-02T09:40:00.959Z,7.93
2023-03-02T09:45:30.214Z,8.15
2023-03-02T09:50:35.960Z,8.93
2023-03-02T09:55:38.184Z,9.40
2023-03-02T10:00:43.899Z,9.55
2023-03-02T10:05:50.995Z,9.82
2023-03-02T10:11:18.079Z,10.09
2023-03-02T10:16:39.469Z,10.73
2023-03-02T10:21:44.820Z,11.21
2023-03-02T10:26:50.364Z,11.37
2023-03-02T10:32:06.499Z,11.17
2023-03-02T10:37:16.420Z,11.12
2023-03-02T10:42:32.062Z,11.35
2023-03-02T10:47:33.598Z,11.28
2023-03-02T10:52:35.016Z,11.91
2023-03-02T10:57:42.097Z,12.37
2023-03-02T11:02:57.379Z,11.69
2023-03-02T11:08:08.816Z,12.20
2023-03-02T11:13:28.195Z,11.76
2023-03-02T11:18:38.105Z,11.22
2023-03-02T11:23:45.493Z,10.90
2023-03-02T11:29:22.724Z,10.88
2023-03-02T11:34:43.254Z,10.81
2023-03-02T11:39:55.212Z,10.39
2023-03-02T11:45:02.042Z,10.93
2023-03-02T11:50:07.344Z,11.43
2023-03-02T11:55:11.959Z,11.29
2023-03-02T12:00:33.650Z,11.04
2023-03-02T12:05:39.031Z,10.41
2023-03-02T12:10:44.125Z,10.18
2023-03-02T12:15:50.949Z,10.23
2023-03-02T12:21:02.012Z,10.48
2023-03-02T12:26:29.534Z,10.20
2023-03-02T12:31:47.457Z,10.48
2023-03-02T12:36:50.634Z,10.34
2023-03-02T12:42:22.283Z,10.72
2023-03-02T12:47:29.763Z,11.26
2023-03-02T12:52:35.617Z,11.47
2023-03-02T12:57:46.632Z,11.35
2023-03-02T13:02:50.872Z,11.29
2023-03-02T13:08:03.298Z,10.93
2023-03-02T13:13:16.496Z,10.90
2023-03-02T13:18:20.030Z,10.97
2023-03-02T13:23:22.203Z,11.13
2023-03-02T13:28:31.529Z,10.70
2023-03-02T13:33:35.418Z,10.63
2023-03-02T13:38:38.424Z,10.90
2023-03-02T13:43:40.208Z,10.48
2023-03-02T13:48:41.825Z,10.13
2023-03-02T13:53:50.917Z,10.13
2023-03-02T13:58:52.453Z,10.38
2023-03-02T14:03:55.435Z,10.55
2023-03-02T14:08:58.632Z,10.77
2023-03-02T14:14:02.110Z,10.77
2023-03-02T14:19:04.058Z,10.43
2023-03-02T14:24:06.269Z,10.37
2023-03-02T14:29:21.634Z,10.37
2023-03-02T14:34:23.480Z,10.30
2023-03-02T14:39:35.308Z,10.39
2023-03-02T14:44:36.944Z,10.45
2023-03-02T14:49:39.121Z,10.42
2023-03-02T14:54:44.805Z,10.46
2023-03-02T14:59:47.017Z,10.40
2023-03-02T15:04:52.699Z,10.34
2023-03-02T15:09:56.155Z,10.38
2023-03-02T15:14:57.630Z,10.43
2023-03-02T15:19:59.542Z,10.40
2023-03-02T15:25:00.980Z,10.46
2023-03-02T15:30:02.494Z,10.41
2023-03-02T15:35:04.703Z,10.41
2023-03-02T15:40:06.932Z,10.45
2023-03-02T15:45:08.623Z,10.47
2023-03-02T15:50:11.073Z,10.46
2023-03-02T15:55:15.627Z,10.44
2023-03-02T16:00:18.019Z,10.41
2023-03-02T16:05:19.566Z,10.35
2023-03-02T16:10:21.246Z,10.29
2023-03-02T16:15:22.881Z,10.23
2023-03-02T16:20:24.588Z,10.11
2023-03-02T16:25:26.026Z,9.85
2023-03-02T16:30:27.756Z,9.51
2023-03-02T16:35:34.268Z,9.19
2023-03-02T16:40:37.246Z,9.00
2023-03-02T16:45:38.750Z,8.75
2023-03-02T16:50:43.394Z,8.37
2023-03-02T16:55:44.797Z,8.12
2023-03-02T17:00:46.445Z,7.85
2023-03-02T17:05:48.638Z,7.61
2023-03-02T17:10:50.084Z,7.44
2023-03-02T17:15:51.592Z,7.23
2023-03-02T17:20:55.168Z,7.04
2023-03-02T17:25:57.410Z,6.89
2023-03-02T17:31:00.514Z,6.75
2023-03-02T17:36:07.644Z,6.65
2023-03-02T17:41:11.578Z,6.56
2023-03-02T17:46:20.486Z,6.49
2023-03-02T17:51:23.316Z,6.44
2023-03-02T17:56:26.737Z,6.36
2023-03-02T18:01:29.841Z,6.31
2023-03-02T18:06:31.846Z,6.24
2023-03-02T18:11:33.599Z,6.15
2023-03-02T18:16:35.576Z,6.05
2023-03-02T18:21:38.470Z,6.00
2023-03-02T18:26:40.002Z,5.95
2023-03-02T18:31:41.639Z,5.86
2023-03-02T18:36:43.114Z,5.77
2023-03-02T18:41:44.634Z,5.73
2023-03-02T18:46:46.508Z,5.75
2023-03-02T18:51:48.536Z,5.84
2023-03-02T18:56:49.977Z,5.88
2023-03-02T19:01:51.469Z,5.94
2023-03-02T19:06:55.632Z,6.02
2023-03-02T19:11:57.062Z,6.06
2023-03-02T19:16:58.671Z,6.01
2023-03-02T19:22:01.102Z,5.88
2023-03-02T19:27:02.727Z,5.81
2023-03-02T19:32:04.736Z,5.83
2023-03-02T19:37:06.200Z,5.84
2023-03-02T19:42:07.787Z,5.85
2023-03-02T19:47:09.328Z,5.85
2023-03-02T19:52:10.764Z,5.84
2023-03-02T19:57:12.273Z,5.76
2023-03-02T20:02:15.056Z,5.74
2023-03-02T20:07:16.538Z,5.73
2023-03-02T20:12:18.127Z,5.67
2023-03-02T20:17:20.856Z,5.66
2023-03-02T20:22:25.841Z,5.62
2023-03-02T20:27:27.297Z,5.49
2023-03-02T20:32:30.039Z,5.36
2023-03-02T20:37:31.756Z,5.24
2023-03-02T20:42:34.074Z,5.15
2023-03-02T20:47:35.633Z,5.05
2023-03-02T20:52:37.740Z,4.97
2023-03-02T20:57:39.773Z,4.91
2023-03-02T21:02:41.467Z,4.84
2023-03-02T21:07:43.569Z,4.73
2023-03-02T21:12:45.692Z,4.65
2023-03-02T21:17:47.514Z,4.59
2023-03-02T21:22:49.051Z,4.55
2023-03-02T21:27:50.525Z,4.51
2023-03-02T21:32:51.959Z,4.44
2023-03-02T21:37:57.191Z,4.33
2023-03-02T21:43:00.369Z,4.35
2023-03-02T21:48:02.307Z,4.33
2023-03-02T21:53:04.294Z,4.31
2023-03-02T21:58:06.192Z,4.30
2023-03-02T22:03:07.848Z,4.23
2023-03-02T22:08:13.504Z,4.14
2023-03-02T22:13:23.930Z,4.11
2023-03-02T22:18:27.041Z,4.08
2023-03-02T22:23:28.566Z,4.04
2023-03-02T22:28:30.207Z,3.97
2023-03-02T22:33:33.925Z,3.86
2023-03-02T22:38:35.415Z,3.77
2023-03-02T22:43:36.867Z,3.68
2023-03-02T22:48:38.604Z,3.65
2023-03-02T22:53:46.368Z,3.59
2023-03-02T22:58:50.134Z,3.56
2023-03-02T23:04:12.949Z,3.51
2023-03-02T23:09:23.930Z,3.40
2023-03-02T23:14:28.580Z,3.28
2023-03-02T23:19:31.422Z,3.30
2023-03-02T23:24:32.857Z,3.24
2023-03-02T23:29:35.077Z,3.20
2023-03-02T23:34:36.518Z,3.20
2023-03-02T23:39:37.938Z,3.18
2023-03-02T23:44:39.426Z,3.14
2023-03-02T23:49:40.919Z,3.13
2023-03-02T23:54:43.340Z,3.11
2023-03-02T23:59:44.762Z,2.98
